createdAt,value
2023-05-09T00:00:53.644Z,23.08
2023-05-09T00:03:21.332Z,21.23
2023-05-09T00:05:48.175Z,22.38
2023-05-09T00:08:15.446Z,21.38
2023-05-09T00:10:42.376Z,22.13
2023-05-09T00:13:09.684Z,22.85
2023-05-09T00:15:36.402Z,22.58
2023-05-09T00:18:03.851Z,23.05
2023-05-09T00:20:30.546Z,25.45
2023-05-09T00:22:57.855Z,29.95
2023-05-09T00:25:24.604Z,31.08
2023-05-09T00:27:51.818Z,47.38
2023-05-09T00:30:18.994Z,58.67
2023-05-09T00:32:46.364Z,59.88
2023-05-09T00:35:13.316Z,65.03
2023-05-09T00:37:40.827Z,64.93
2023-05-09T00:40:09.056Z,71.88
2023-05-09T00:42:36.734Z,70.65
2023-05-09T00:45:03.822Z,69.75
2023-05-09T00:47:31.190Z,72.45
2023-05-09T00:49:58.451Z,72.47
2023-05-09T00:52:26.453Z,69.78
2023-05-09T00:54:54.882Z,72.13
2023-05-09T00:57:25.223Z,75.18
2023-05-09T00:59:52.001Z,71.00
2023-05-09T01:02:19.739Z,71.30
2023-05-09T01:04:46.840Z,73.13
2023-05-09T01:07:29.166Z,70.45
2023-05-09T01:10:27.890Z,70.78
2023-05-09T01:13:06.169Z,73.00
2023-05-09T01:15:55.310Z,72.95
2023-05-09T01:18:46.001Z,74.28
2023-05-09T01:21:21.292Z,74.50
2023-05-09T01:24:04.077Z,73.28
2023-05-09T01:26:46.864Z,74.18
2023-05-09T01:29:34.357Z,73.95
2023-05-09T01:32:10.860Z,72.20
2023-05-09T01:34:41.002Z,73.43
2023-05-09T01:37:09.776Z,74.10
2023-05-09T01:39:39.811Z,78.18
2023-05-09T01:42:10.777Z,74.10
2023-05-09T01:44:40.822Z,75.75
2023-05-09T01:47:08.877Z,78.10
2023-05-09T01:49:37.844Z,76.95
2023-05-09T01:52:10.004Z,75.85
2023-05-09T01:54:38.528Z,75.63
2023-05-09T01:57:10.077Z,75.35
2023-05-09T01:59:41.080Z,77.47
2023-05-09T02:02:08.166Z,75.65
2023-05-09T02:04:36.396Z,73.97
2023-05-09T02:07:05.727Z,74.50
2023-05-09T02:09:33.154Z,76.85
2023-05-09T02:11:59.843Z,73.57
2023-05-09T02:14:27.698Z,74.97
2023-05-09T02:16:54.507Z,73.20
2023-05-09T02:19:21.785Z,70.30
2023-05-09T02:21:48.639Z,71.22
2023-05-09T02:24:15.903Z,72.43
2023-05-09T02:26:43.159Z,70.85
2023-05-09T02:29:12.050Z,68.25
2023-05-09T02:31:41.140Z,67.88
2023-05-09T02:34:09.999Z,66.85
2023-05-09T02:36:37.258Z,67.25
2023-05-09T02:39:04.669Z,64.28
2023-05-09T02:41:31.566Z,62.70
2023-05-09T02:43:58.849Z,63.42
2023-05-09T02:46:26.189Z,62.17
2023-05-09T02:48:53.695Z,62.60
2023-05-09T02:51:20.322Z,61.35
2023-05-09T02:53:47.557Z,61.53
2023-05-09T02:56:14.234Z,61.03
2023-05-09T02:58:41.443Z,60.20
2023-05-09T03:01:08.109Z,61.15
2023-05-09T03:03:35.526Z,60.55
2023-05-09T03:06:04.256Z,59.88
2023-05-09T03:08:31.177Z,59.80
2023-05-09T03:10:58.899Z,59.80
2023-05-09T03:13:25.746Z,58.55
2023-05-09T03:15:53.115Z,59.42
2023-05-09T03:18:19.814Z,61.05
2023-05-09T03:20:47.076Z,58.67
2023-05-09T03:23:14.057Z,57.15
2023-05-09T03:25:40.765Z,59.08
2023-05-09T03:28:07.991Z,54.80
2023-05-09T03:30:35.107Z,56.95
2023-05-09T03:33:02.583Z,54.67
2023-05-09T03:35:29.216Z,52.28
2023-05-09T03:37:56.527Z,50.78
2023-05-09T03:40:23.160Z,51.85
2023-05-09T03:42:57.863Z,53.58
2023-05-09T03:45:24.649Z,53.13
2023-05-09T03:47:51.712Z,51.80
2023-05-09T03:50:19.300Z,51.05
2023-05-09T03:52:46.480Z,49.42
2023-05-09T03:55:16.921Z,47.25
2023-05-09T03:57:43.718Z,50.35
2023-05-09T04:00:12.820Z,49.13
2023-05-09T04:02:49.653Z,47.88
2023-05-09T04:05:27.251Z,47.53
2023-05-09T04:07:54.797Z,47.47
2023-05-09T04:10:21.707Z,47.80
2023-05-09T04:12:49.139Z,45.80
2023-05-09T04:15:17.677Z,46.53
2023-05-09T04:17:45.109Z,44.35
2023-05-09T04:20:12.461Z,44.33
2023-05-09T04:22:40.001Z,43.17
2023-05-09T04:25:08.629Z,44.95
2023-05-09T04:27:35.796Z,41.75
2023-05-09T04:30:03.330Z,39.00
2023-05-09T04:32:30.467Z,40.65
2023-05-09T04:34:57.781Z,41.88
2023-05-09T04:37:31.346Z,40.63
2023-05-09T04:40:01.509Z,38.22
2023-05-09T04:42:37.733Z,41.45
2023-05-09T04:45:05.535Z,40.00
2023-05-09T04:47:33.106Z,38.72
2023-05-09T04:49:59.798Z,38.22
2023-05-09T04:52:27.114Z,40.70
2023-05-09T04:54:53.732Z,38.10
2023-05-09T04:57:22.626Z,38.03
2023-05-09T04:59:55.362Z,37.83
2023-05-09T05:02:22.222Z,38.92
2023-05-09T05:04:56.085Z,37.95
2023-05-09T05:07:27.398Z,37.45
2023-05-09T05:09:54.697Z,39.53
2023-05-09T05:12:22.532Z,38.22
2023-05-09T05:14:49.925Z,37.67
2023-05-09T05:17:19.647Z,36.05
2023-05-09T05:19:47.192Z,38.15
2023-05-09T05:22:14.748Z,39.00
2023-05-09T05:24:44.253Z,36.95
2023-05-09T05:27:11.235Z,37.80
2023-05-09T05:29:38.655Z,37.75
2023-05-09T05:32:06.097Z,36.88
2023-05-09T05:34:33.875Z,36.97
2023-05-09T05:37:00.807Z,37.65
2023-05-09T05:39:28.153Z,39.25
2023-05-09T05:41:54.793Z,36.28
2023-05-09T05:44:22.140Z,36.63
2023-05-09T05:46:49.118Z,36.55
2023-05-09T05:49:16.881Z,38.38
2023-05-09T05:51:43.712Z,38.92
2023-05-09T05:54:11.818Z,38.53
2023-05-09T05:56:38.604Z,37.92
2023-05-09T05:59:06.245Z,37.85
2023-05-09T06:01:33.073Z,38.15
2023-05-09T06:04:00.472Z,38.97
2023-05-09T06:06:30.933Z,36.55
2023-05-09T06:08:58.261Z,39.33
2023-05-09T06:11:24.925Z,37.60
2023-05-09T06:13:52.618Z,38.22
2023-05-09T06:16:20.662Z,40.22
2023-05-09T06:18:50.671Z,39.13
2023-05-09T06:21:17.865Z,38.10
2023-05-09T06:23:57.801Z,38.70
2023-05-09T06:26:32.493Z,40.65
2023-05-09T06:29:00.025Z,41.15
2023-05-09T06:31:26.809Z,42.47
2023-05-09T06:33:54.294Z,39.33
2023-05-09T06:36:20.965Z,41.05
2023-05-09T06:38:48.170Z,42.40
2023-05-09T06:41:14.767Z,41.47
2023-05-09T06:43:42.032Z,44.45
2023-05-09T06:46:08.699Z,42.45
2023-05-09T06:48:36.351Z,42.10
2023-05-09T06:51:03.018Z,40.78
2023-05-09T06:53:30.280Z,43.65
2023-05-09T06:55:57.173Z,41.00
2023-05-09T06:58:24.481Z,40.60
2023-05-09T07:00:51.503Z,40.90
2023-05-09T07:03:18.817Z,39.90
2023-05-09T07:05:45.620Z,38.75
2023-05-09T07:08:12.892Z,41.47
2023-05-09T07:10:39.651Z,39.67
2023-05-09T07:13:06.941Z,39.47
2023-05-09T07:15:41.087Z,38.35
2023-05-09T07:18:09.323Z,38.95
2023-05-09T07:20:36.210Z,38.80
2023-05-09T07:23:04.675Z,40.92
2023-05-09T07:25:31.926Z,40.72
2023-05-09T07:27:59.100Z,39.15
2023-05-09T07:30:25.851Z,38.58
2023-05-09T07:32:53.553Z,36.38
2023-05-09T07:35:20.949Z,38.42
2023-05-09T07:37:48.298Z,34.22
2023-05-09T07:40:15.551Z,30.85
2023-05-09T07:42:49.884Z,30.75
2023-05-09T07:45:17.547Z,29.88
2023-05-09T07:47:45.699Z,29.85
2023-05-09T07:50:12.386Z,27.15
2023-05-09T07:52:39.697Z,26.98
2023-05-09T07:55:06.659Z,25.83
2023-05-09T07:57:34.040Z,26.05
2023-05-09T08:00:00.745Z,22.15
2023-05-09T08:02:28.085Z,22.58
2023-05-09T08:04:54.746Z,18.73
2023-05-09T08:07:22.010Z,16.52
2023-05-09T08:09:48.717Z,17.90
2023-05-09T08:12:16.045Z,17.52
2023-05-09T08:14:42.750Z,15.93
2023-05-09T08:17:10.162Z,15.68
2023-05-09T08:19:36.837Z,15.60
2023-05-09T08:22:04.537Z,13.75
2023-05-09T08:24:32.537Z,16.45
2023-05-09T08:27:00.126Z,14.90
2023-05-09T08:29:26.832Z,14.18
2023-05-09T08:31:53.833Z,15.05
2023-05-09T08:34:21.447Z,14.75
2023-05-09T08:36:48.498Z,15.13
2023-05-09T08:39:15.775Z,19.65
2023-05-09T08:41:42.979Z,17.77
2023-05-09T08:44:11.134Z,16.17
2023-05-09T08:46:44.097Z,14.80
2023-05-09T08:49:12.106Z,15.90
2023-05-09T08:51:39.992Z,13.55
2023-05-09T08:54:07.345Z,13.15
2023-05-09T08:56:35.356Z,14.20
2023-05-09T08:59:04.118Z,13.18
2023-05-09T09:01:32.819Z,11.80
2023-05-09T09:04:01.290Z,11.93
2023-05-09T09:06:30.359Z,13.05
2023-05-09T09:08:58.654Z,12.55
2023-05-09T09:11:26.462Z,12.60
2023-05-09T09:13:54.022Z,11.95
2023-05-09T09:16:23.094Z,13.85
2023-05-09T09:18:52.269Z,12.50
2023-05-09T09:21:21.101Z,12.02
2023-05-09T09:23:48.875Z,11.05
2023-05-09T09:26:16.385Z,11.73
2023-05-09T09:28:43.503Z,12.10
2023-05-09T09:31:24.455Z,12.52
2023-05-09T09:33:52.040Z,12.35
2023-05-09T09:36:36.397Z,12.07
2023-05-09T09:39:05.299Z,12.80
2023-05-09T09:41:35.881Z,12.25
2023-05-09T09:44:13.758Z,10.68
2023-05-09T09:46:50.860Z,11.60
2023-05-09T09:49:20.102Z,10.48
2023-05-09T09:52:05.657Z,11.88
2023-05-09T09:54:33.278Z,12.32
2023-05-09T09:57:00.523Z,11.88
2023-05-09T09:59:27.284Z,10.23
2023-05-09T10:01:57.389Z,10.00
2023-05-09T10:04:25.407Z,9.77
2023-05-09T10:06:56.895Z,8.25
2023-05-09T10:09:25.325Z,9.43
2023-05-09T10:11:53.203Z,7.90
2023-05-09T10:14:23.417Z,7.75
2023-05-09T10:16:52.083Z,7.28
2023-05-09T10:19:23.699Z,7.55
2023-05-09T10:22:08.394Z,6.65
2023-05-09T10:24:41.368Z,6.47
2023-05-09T10:27:13.078Z,6.85
2023-05-09T10:29:45.678Z,5.68
2023-05-09T10:32:26.014Z,6.05
2023-05-09T10:34:58.164Z,5.60
2023-05-09T10:37:25.797Z,5.35
2023-05-09T10:39:53.616Z,4.85
2023-05-09T10:42:23.205Z,4.97
2023-05-09T10:44:50.981Z,5.30
2023-05-09T10:47:19.437Z,5.32
2023-05-09T10:49:46.617Z,4.70
2023-05-09T10:52:14.860Z,5.40
2023-05-09T10:54:41.899Z,5.28
2023-05-09T10:57:12.038Z,5.38
2023-05-09T10:59:42.754Z,6.03
2023-05-09T11:02:16.166Z,5.88
2023-05-09T11:04:44.118Z,5.63
2023-05-09T11:07:25.834Z,6.10
2023-05-09T11:10:17.656Z,5.85
2023-05-09T11:12:59.305Z,5.20
2023-05-09T11:15:27.563Z,5.28
2023-05-09T11:18:10.224Z,5.22
2023-05-09T11:20:43.662Z,5.18
2023-05-09T11:23:12.177Z,5.38
2023-05-09T11:25:39.693Z,6.32
2023-05-09T11:28:06.964Z,5.47
2023-05-09T11:30:43.657Z,5.70
2023-05-09T11:33:24.698Z,5.32
2023-05-09T11:36:20.732Z,5.63
2023-05-09T11:38:48.930Z,6.00
2023-05-09T11:41:16.064Z,5.32
2023-05-09T11:43:46.775Z,5.35
2023-05-09T11:46:13.437Z,5.00
2023-05-09T11:48:42.454Z,4.88
2023-05-09T11:51:19.286Z,5.05
2023-05-09T11:53:50.097Z,4.93
2023-05-09T11:56:17.321Z,5.53
2023-05-09T11:58:44.684Z,5.50
2023-05-09T12:01:12.533Z,6.30
2023-05-09T12:03:45.094Z,6.22
2023-05-09T12:06:17.236Z,6.68
2023-05-09T12:08:46.723Z,8.50
2023-05-09T12:11:14.902Z,8.55
2023-05-09T12:13:47.164Z,8.52
2023-05-09T12:16:14.424Z,9.07
2023-05-09T12:18:52.965Z,9.75
2023-05-09T12:21:20.630Z,11.15
2023-05-09T12:23:50.915Z,11.30
2023-05-09T12:26:18.486Z,11.95
2023-05-09T12:28:46.148Z,12.90
2023-05-09T12:31:13.286Z,13.82
2023-05-09T12:33:41.255Z,15.25
2023-05-09T12:36:11.095Z,13.75
2023-05-09T12:38:39.194Z,13.85
2023-05-09T12:41:12.963Z,14.25
2023-05-09T12:43:51.016Z,13.93
2023-05-09T12:46:19.881Z,13.68
2023-05-09T12:48:50.367Z,13.15
2023-05-09T12:51:21.271Z,12.02
2023-05-09T12:53:48.811Z,12.93
2023-05-09T12:56:22.758Z,12.70
2023-05-09T12:58:51.850Z,12.70
2023-05-09T13:01:19.889Z,12.63
2023-05-09T13:04:02.027Z,12.48
2023-05-09T13:06:28.680Z,12.80
2023-05-09T13:09:06.219Z,11.90
2023-05-09T13:11:33.174Z,12.10
2023-05-09T13:14:07.046Z,11.70
2023-05-09T13:16:34.598Z,11.50
2023-05-09T13:19:01.994Z,12.20
2023-05-09T13:21:28.622Z,11.85
2023-05-09T13:23:56.045Z,12.65
2023-05-09T13:26:22.754Z,12.48
2023-05-09T13:28:50.195Z,12.93
2023-05-09T13:31:17.954Z,13.48
2023-05-09T13:33:46.900Z,12.00
2023-05-09T13:36:14.828Z,12.30
2023-05-09T13:38:42.571Z,10.57
2023-05-09T13:41:09.992Z,10.00
2023-05-09T13:43:39.375Z,10.02
2023-05-09T13:46:06.167Z,9.57
2023-05-09T13:48:33.517Z,9.68
2023-05-09T13:51:01.064Z,9.38
2023-05-09T13:53:28.302Z,8.38
2023-05-09T13:55:55.071Z,7.40
2023-05-09T13:58:22.864Z,6.63
2023-05-09T14:00:50.191Z,5.53
2023-05-09T14:03:17.542Z,4.30
2023-05-09T14:05:44.264Z,4.22
2023-05-09T14:08:11.505Z,3.53
2023-05-09T14:10:38.222Z,4.05
2023-05-09T14:13:05.588Z,4.25
2023-05-09T14:15:32.265Z,5.10
2023-05-09T14:17:59.188Z,6.78
2023-05-09T14:20:25.842Z,6.47
2023-05-09T14:22:55.250Z,7.38
2023-05-09T14:25:22.501Z,7.43
2023-05-09T14:27:49.811Z,7.93
2023-05-09T14:30:16.663Z,8.32
2023-05-09T14:32:44.077Z,7.45
2023-05-09T14:35:10.796Z,6.43
2023-05-09T14:37:38.524Z,6.63
2023-05-09T14:40:05.877Z,6.30
2023-05-09T14:42:33.163Z,5.88
2023-05-09T14:44:59.836Z,5.22
2023-05-09T14:47:27.181Z,5.78
2023-05-09T14:49:53.949Z,5.43
2023-05-09T14:52:21.277Z,6.00
2023-05-09T14:54:47.965Z,6.40
2023-05-09T14:57:15.242Z,6.78
2023-05-09T14:59:42.143Z,6.60
2023-05-09T15:02:09.479Z,7.60
2023-05-09T15:04:36.201Z,7.30
2023-05-09T15:07:03.138Z,7.47
2023-05-09T15:09:29.816Z,7.00
2023-05-09T15:11:56.797Z,5.97
2023-05-09T15:14:24.025Z,7.03
2023-05-09T15:16:52.152Z,7.63
2023-05-09T15:19:19.625Z,9.52
2023-05-09T15:21:47.631Z,9.18
2023-05-09T15:24:14.970Z,11.95
2023-05-09T15:26:41.605Z,13.27
2023-05-09T15:29:08.882Z,14.93
2023-05-09T15:31:36.136Z,14.30
2023-05-09T15:34:03.669Z,14.55
2023-05-09T15:36:30.895Z,13.48
2023-05-09T15:38:57.889Z,13.30
2023-05-09T15:41:24.837Z,12.63
2023-05-09T15:43:52.437Z,13.50
2023-05-09T15:46:19.292Z,11.57
2023-05-09T15:48:46.616Z,10.23
2023-05-09T15:51:13.701Z,9.65
2023-05-09T15:53:41.215Z,8.05
2023-05-09T15:56:08.739Z,6.95
2023-05-09T15:58:36.131Z,7.18
2023-05-09T16:01:05.861Z,6.50
2023-05-09T16:03:33.327Z,5.95
2023-05-09T16:06:00.216Z,6.43
2023-05-09T16:08:27.736Z,7.07
2023-05-09T16:10:54.546Z,6.32
2023-05-09T16:13:21.858Z,5.03
2023-05-09T16:15:49.943Z,4.60
2023-05-09T16:18:17.315Z,5.60
2023-05-09T16:20:44.102Z,6.10
2023-05-09T16:23:12.090Z,5.90
2023-05-09T16:25:38.988Z,5.75
2023-05-09T16:28:07.436Z,6.03
2023-05-09T16:30:34.342Z,5.20
2023-05-09T16:33:01.701Z,6.00
2023-05-09T16:35:29.026Z,5.45
2023-05-09T16:37:56.393Z,6.30
2023-05-09T16:40:23.184Z,6.95
2023-05-09T16:42:50.452Z,6.32
2023-05-09T16:45:17.162Z,7.13
2023-05-09T16:47:44.643Z,6.78
2023-05-09T16:50:11.337Z,7.70
2023-05-09T16:52:38.595Z,8.32
2023-05-09T16:55:05.933Z,8.25
2023-05-09T16:57:33.849Z,7.65
2023-05-09T17:00:00.588Z,8.40
2023-05-09T17:02:28.052Z,7.38
2023-05-09T17:04:54.999Z,7.70
2023-05-09T17:07:22.531Z,8.73
2023-05-09T17:09:49.484Z,6.15
2023-05-09T17:12:18.509Z,5.40
2023-05-09T17:14:46.567Z,4.43
2023-05-09T17:17:14.971Z,3.90
2023-05-09T17:19:41.729Z,4.40
2023-05-09T17:22:09.383Z,4.68
2023-05-09T17:24:36.281Z,3.58
2023-05-09T17:27:04.718Z,4.00
2023-05-09T17:29:31.697Z,3.60
2023-05-09T17:32:02.131Z,3.97
2023-05-09T17:34:29.164Z,3.83
2023-05-09T17:36:56.668Z,2.92
2023-05-09T17:39:25.276Z,4.03
2023-05-09T17:41:52.560Z,3.78
2023-05-09T17:44:19.173Z,6.68
2023-05-09T17:46:48.121Z,9.13
2023-05-09T17:49:15.182Z,5.78
2023-05-09T17:51:42.589Z,3.78
2023-05-09T17:54:10.323Z,3.42
2023-05-09T17:56:37.682Z,3.45
2023-05-09T17:59:04.316Z,3.15
2023-05-09T18:01:31.662Z,2.95
2023-05-09T18:03:58.647Z,3.40
2023-05-09T18:06:26.523Z,3.40
2023-05-09T18:08:53.244Z,2.97
2023-05-09T18:11:20.752Z,3.28
2023-05-09T18:13:47.417Z,3.60
2023-05-09T18:16:14.728Z,3.45
2023-05-09T18:18:41.449Z,4.40
2023-05-09T18:21:09.852Z,3.60
2023-05-09T18:23:36.668Z,4.13
2023-05-09T18:26:04.225Z,4.72
2023-05-09T18:28:39.255Z,3.88
2023-05-09T18:31:09.602Z,5.28
2023-05-09T18:33:38.524Z,4.90
2023-05-09T18:36:09.033Z,5.40
2023-05-09T18:38:38.606Z,4.88
2023-05-09T18:41:10.588Z,6.60
2023-05-09T18:43:41.905Z,6.27
2023-05-09T18:46:09.030Z,5.35
2023-05-09T18:48:36.385Z,5.75
2023-05-09T18:51:03.098Z,6.07
2023-05-09T18:53:30.363Z,6.55
2023-05-09T18:55:57.088Z,5.50
2023-05-09T18:58:24.925Z,4.07
2023-05-09T19:00:52.819Z,2.97
2023-05-09T19:03:19.892Z,2.83
2023-05-09T19:05:47.328Z,2.97
2023-05-09T19:08:14.893Z,2.45
2023-05-09T19:10:42.279Z,3.10
2023-05-09T19:13:09.393Z,3.70
2023-05-09T19:15:36.146Z,2.92
2023-05-09T19:18:04.024Z,2.80
2023-05-09T19:20:31.434Z,2.72
2023-05-09T19:22:59.305Z,2.55
2023-05-09T19:25:26.448Z,2.97
2023-05-09T19:27:53.991Z,3.13
2023-05-09T19:30:21.057Z,4.15
2023-05-09T19:32:48.766Z,5.20
2023-05-09T19:35:18.060Z,6.32
2023-05-09T19:37:45.328Z,6.80
2023-05-09T19:40:12.134Z,7.82
2023-05-09T19:42:39.632Z,7.85
2023-05-09T19:45:06.704Z,8.38
2023-05-09T19:47:33.957Z,8.60
2023-05-09T19:50:01.937Z,9.07
2023-05-09T19:52:30.134Z,12.57
2023-05-09T19:54:56.918Z,10.32
2023-05-09T19:57:24.198Z,11.52
2023-05-09T19:59:51.840Z,11.52
2023-05-09T20:02:19.121Z,11.27
2023-05-09T20:04:49.584Z,11.57
2023-05-09T20:07:18.134Z,12.18
2023-05-09T20:09:44.744Z,12.73
2023-05-09T20:12:13.414Z,13.52
2023-05-09T20:14:40.034Z,14.52
2023-05-09T20:17:07.403Z,14.98
2023-05-09T20:19:34.276Z,13.52
2023-05-09T20:22:02.175Z,13.18
2023-05-09T20:24:31.150Z,12.88
2023-05-09T20:26:58.507Z,13.23
2023-05-09T20:29:25.815Z,13.55
2023-05-09T20:31:53.234Z,11.75
2023-05-09T20:34:21.295Z,11.95
2023-05-09T20:36:52.310Z,12.63
2023-05-09T20:39:19.813Z,14.85
2023-05-09T20:41:48.108Z,15.50
2023-05-09T20:44:16.758Z,16.25
2023-05-09T20:46:45.236Z,17.20
2023-05-09T20:49:12.551Z,17.92
2023-05-09T20:51:40.070Z,17.35
2023-05-09T20:54:06.740Z,17.10
2023-05-09T20:56:35.686Z,16.25
2023-05-09T20:59:03.984Z,15.60
2023-05-09T21:01:32.692Z,15.65
2023-05-09T21:03:59.493Z,15.02
2023-05-09T21:06:26.950Z,15.43
2023-05-09T21:08:53.553Z,15.13
2023-05-09T21:11:22.276Z,13.60
2023-05-09T21:13:48.941Z,15.00
2023-05-09T21:16:16.350Z,14.82
2023-05-09T21:18:43.072Z,14.93
2023-05-09T21:21:10.490Z,14.50
2023-05-09T21:23:37.191Z,14.95
2023-05-09T21:26:04.952Z,15.10
2023-05-09T21:28:32.597Z,14.85
2023-05-09T21:31:01.859Z,15.38
2023-05-09T21:33:29.088Z,15.55
2023-05-09T21:35:56.414Z,15.05
2023-05-09T21:38:23.076Z,15.48
2023-05-09T21:40:51.784Z,15.88
2023-05-09T21:43:18.871Z,15.43
2023-05-09T21:45:46.305Z,17.83
2023-05-09T21:48:14.120Z,16.52
2023-05-09T21:50:44.696Z,17.38
2023-05-09T21:53:11.525Z,16.85
2023-05-09T21:55:38.739Z,17.98
2023-05-09T21:58:05.369Z,17.95
2023-05-09T22:00:32.579Z,17.35
2023-05-09T22:02:59.309Z,18.55
2023-05-09T22:05:26.681Z,18.17
2023-05-09T22:07:53.288Z,18.85
2023-05-09T22:10:20.649Z,20.05
2023-05-09T22:12:47.453Z,21.10
2023-05-09T22:15:14.436Z,20.50
2023-05-09T22:17:41.710Z,21.60
2023-05-09T22:20:09.525Z,22.80
2023-05-09T22:22:36.199Z,22.40
2023-05-09T22:25:05.019Z,23.73
2023-05-09T22:27:31.607Z,24.33
2023-05-09T22:29:58.594Z,25.77
2023-05-09T22:32:25.871Z,24.83
2023-05-09T22:34:53.966Z,25.10
2023-05-09T22:37:21.793Z,24.48
2023-05-09T22:39:48.401Z,25.55
2023-05-09T22:42:16.248Z,26.05
2023-05-09T22:44:43.064Z,26.85
2023-05-09T22:47:10.707Z,27.73
2023-05-09T22:49:37.369Z,27.15
2023-05-09T22:52:04.814Z,27.00
2023-05-09T22:54:31.480Z,26.67
2023-05-09T22:56:58.972Z,27.25
2023-05-09T22:59:26.353Z,27.35
2023-05-09T23:01:53.806Z,27.60
2023-05-09T23:04:20.484Z,28.85
2023-05-09T23:06:47.818Z,29.85
2023-05-09T23:09:14.380Z,29.35
2023-05-09T23:11:41.650Z,28.25
2023-05-09T23:14:08.344Z,28.20
2023-05-09T23:16:35.599Z,28.98
2023-05-09T23:19:02.548Z,28.95
2023-05-09T23:21:30.053Z,29.65
2023-05-09T23:23:56.760Z,29.25
2023-05-09T23:26:23.964Z,31.17
2023-05-09T23:28:50.650Z,29.63
2023-05-09T23:31:18.081Z,29.30
2023-05-09T23:33:44.716Z,30.85
2023-05-09T23:36:12.045Z,28.73
2023-05-09T23:38:38.737Z,29.50
2023-05-09T23:41:06.047Z,29.02
2023-05-09T23:43:33.319Z,30.67
2023-05-09T23:46:00.616Z,29.13
2023-05-09T23:48:27.196Z,31.02
2023-05-09T23:50:54.470Z,33.25
2023-05-09T23:53:21.232Z,32.83
2023-05-09T23:55:48.225Z,33.88
2023-05-09T23:58:14.833Z,30.90
